Time;durP1;ratioP1;P1;durP2;ratioP2;P2;SDS_P1;SDS_P2;PMS_P1;PMS_P2;Temp;Humidity;BMP_temperature;BMP_pressure;BME280_temperature;BME280_humidity;BME280_pressure;Samples;Min_cycle;Max_cycle;Signal;HPM_P1;HPM_P2
2022/07/19 00:00:40;;;;;;;4.32;2.20;;;;;;;19.51;53.84;100638.03;5060107;28;20060;-65
2022/07/19 00:03:07;;;;;;;4.18;2.17;;;;;;;19.48;53.80;100631.91;5053020;28;20057;-64
2022/07/19 00:05:37;;;;;;;3.75;1.98;;;;;;;19.39;54.10;100631.34;5070349;28;20052;-64
2022/07/19 00:08:06;;;;;;;2.97;1.95;;;;;;;19.40;54.18;100630.16;5068789;28;20060;-65
2022/07/19 00:10:33;;;;;;;4.30;2.08;;;;;;;19.41;54.27;100628.16;5069416;28;20053;-64
2022/07/19 00:13:02;;;;;;;4.18;2.40;;;;;;;19.37;54.22;100627.25;5070682;28;20060;-64
2022/07/19 00:15:31;;;;;;;4.00;1.90;;;;;;;19.31;54.40;100621.06;5070383;28;20501;-64
2022/07/19 00:17:59;;;;;;;3.97;2.08;;;;;;;19.27;54.24;100620.97;5075648;28;20062;-64
2022/07/19 00:20:26;;;;;;;3.50;1.70;;;;;;;19.23;54.56;100619.28;5070930;28;20048;-64
2022/07/19 00:22:54;;;;;;;3.83;1.92;;;;;;;19.15;54.77;100615.50;5071832;28;20051;-65
2022/07/19 00:25:21;;;;;;;2.97;2.15;;;;;;;19.10;55.05;100612.94;5068033;28;20053;-64
2022/07/19 00:27:48;;;;;;;10.82;2.60;;;;;;;19.09;54.99;100614.16;5066162;28;20059;-64
2022/07/19 00:30:17;;;;;;;3.63;2.13;;;;;;;19.05;55.26;100611.25;5070352;28;20051;-64
2022/07/19 00:32:45;;;;;;;4.45;2.50;;;;;;;19.00;55.42;100614.38;5071336;28;20053;-64
2022/07/19 00:35:12;;;;;;;4.72;2.40;;;;;;;18.96;55.43;100599.34;5072178;28;20405;-64
2022/07/19 00:37:40;;;;;;;3.00;2.30;;;;;;;18.91;55.78;100605.25;5070074;28;20060;-64
2022/07/19 00:40:09;;;;;;;4.35;2.72;;;;;;;18.85;55.72;100610.38;5072962;28;20056;-64
2022/07/19 00:42:38;;;;;;;5.00;2.65;;;;;;;18.81;55.86;100611.47;5071261;28;20053;-63
2022/07/19 00:45:06;;;;;;;3.72;2.50;;;;;;;18.75;56.47;100610.09;5074419;28;20389;-64
2022/07/19 00:47:35;;;;;;;5.55;2.67;;;;;;;18.74;56.39;100602.81;5066386;28;20482;-64
2022/07/19 00:50:03;;;;;;;4.18;2.85;;;;;;;18.70;56.50;100599.09;5060631;28;20044;-64
2022/07/19 00:52:33;;;;;;;4.75;3.13;;;;;;;18.69;56.50;100603.94;5069140;28;20044;-63
2022/07/19 00:55:01;;;;;;;4.97;2.90;;;;;;;18.65;56.80;100603.84;5065326;28;20567;-64
2022/07/19 00:57:32;;;;;;;5.18;3.00;;;;;;;18.58;57.08;100608.47;5070130;28;20059;-64
2022/07/19 01:00:04;;;;;;;4.10;2.92;;;;;;;18.52;57.24;100604.28;5072577;28;20053;-64
2022/07/19 01:02:32;;;;;;;6.88;3.08;;;;;;;18.49;57.22;100605.03;5070368;28;20056;-64
2022/07/19 01:05:01;;;;;;;4.05;2.50;;;;;;;18.45;57.30;100617.03;5056223;28;20063;-64
2022/07/19 01:07:29;;;;;;;4.97;2.90;;;;;;;18.39;57.27;100610.03;5069298;28;20436;-64
2022/07/19 01:09:56;;;;;;;3.70;3.08;;;;;;;18.35;57.57;100620.44;5071431;28;20048;-63
2022/07/19 01:12:24;;;;;;;4.90;2.80;;;;;;;18.34;57.67;100613.13;5072862;28;20056;-65
2022/07/19 01:14:56;;;;;;;6.05;3.10;;;;;;;18.34;57.73;100604.66;5069039;28;20040;-64
2022/07/19 01:17:23;;;;;;;4.18;2.72;;;;;;;18.30;58.07;100605.78;5070428;28;20056;-64
2022/07/19 01:19:53;;;;;;;5.80;2.97;;;;;;;18.12;58.52;100599.66;5057137;28;20456;-63
2022/07/19 01:22:24;;;;;;;5.85;2.92;;;;;;;18.16;58.39;100603.38;5058475;28;20060;-64
2022/07/19 01:24:51;;;;;;;5.25;3.13;;;;;;;18.15;58.32;100607.41;5072879;28;20048;-64
2022/07/19 01:27:19;;;;;;;5.65;3.45;;;;;;;18.12;58.51;100600.50;5063584;28;20048;-63
2022/07/19 01:29:46;;;;;;;3.53;2.78;;;;;;;18.10;58.61;100613.28;5065699;28;20057;-64
2022/07/19 01:32:13;;;;;;;5.45;3.63;;;;;;;18.07;58.79;100612.03;5066996;28;20056;-64
2022/07/19 01:34:43;;;;;;;4.35;3.58;;;;;;;18.08;58.69;100604.38;5066478;28;20063;-64
2022/07/19 01:37:10;;;;;;;5.25;3.05;;;;;;;18.03;58.72;100611.09;5056428;28;20056;-64
2022/07/19 01:39:39;;;;;;;4.28;3.13;;;;;;;17.98;58.86;100612.19;5072515;28;20051;-63
2022/07/19 01:42:08;;;;;;;7.97;3.47;;;;;;;17.93;59.21;100611.63;5064545;28;20517;-63
2022/07/19 01:44:38;;;;;;;;;;;;;;;17.86;59.34;100609.44;5071622;28;20045;-64
2022/07/19 01:47:05;;;;;;;4.80;3.30;;;;;;;17.84;59.35;100615.44;5055085;28;19928;-64
2022/07/19 01:49:33;;;;;;;4.15;3.33;;;;;;;17.85;59.47;100613.47;5069838;28;20052;-64
2022/07/19 01:52:00;;;;;;;4.18;3.30;;;;;;;17.82;59.41;100609.34;5069205;28;20408;-63
2022/07/19 01:54:27;;;;;;;5.10;3.40;;;;;;;17.80;59.43;100608.03;5070364;28;20051;-63
2022/07/19 01:56:56;;;;;;;5.53;3.88;;;;;;;17.78;59.58;100614.03;5066388;28;20067;-63
2022/07/19 01:59:23;;;;;;;5.80;2.90;;;;;;;17.75;59.62;100608.31;5067939;28;20049;-63
2022/07/19 02:01:51;;;;;;;5.30;3.45;;;;;;;17.72;59.72;100611.84;5072015;28;20056;-63
2022/07/19 02:04:18;;;;;;;4.90;3.50;;;;;;;17.73;59.92;100622.75;5072799;28;20056;-64
2022/07/19 02:06:45;;;;;;;4.93;3.92;;;;;;;17.70;60.00;100608.56;5067071;28;20059;-63
2022/07/19 02:09:13;;;;;;;4.85;3.55;;;;;;;17.68;60.32;100611.75;5072861;28;20052;-62
2022/07/19 02:11:42;;;;;;;5.35;3.60;;;;;;;17.68;60.25;100608.94;5067143;28;20075;-64
2022/07/19 02:14:10;;;;;;;5.72;3.80;;;;;;;17.65;60.45;100601.19;5073126;28;20420;-64
2022/07/19 02:16:38;;;;;;;4.68;3.50;;;;;;;17.65;60.57;100595.56;5064109;28;20056;-64
2022/07/19 02:19:06;;;;;;;5.15;3.50;;;;;;;17.62;60.24;100601.91;5074374;23;20052;-62
2022/07/19 02:21:35;;;;;;;4.85;3.70;;;;;;;17.59;60.48;100602.63;5070096;28;20508;-63
2022/07/19 02:24:02;;;;;;;4.88;3.67;;;;;;;17.57;60.52;100604.97;5069636;28;20068;-62
2022/07/19 02:26:30;;;;;;;5.28;3.72;;;;;;;17.55;60.51;100598.88;5050694;22;20557;-63
2022/07/19 02:28:58;;;;;;;4.63;3.60;;;;;;;17.51;60.73;100600.78;5029010;28;20053;-61
2022/07/19 02:31:26;;;;;;;4.07;3.50;;;;;;;17.53;60.64;100595.59;5043202;23;20056;-63
2022/07/19 02:33:54;;;;;;;5.07;3.37;;;;;;;17.53;60.70;100589.97;5015914;28;20518;-64
2022/07/19 02:36:21;;;;;;;5.13;3.50;;;;;;;17.50;60.75;100590.72;5033275;28;20507;-65
2022/07/19 02:38:48;;;;;;;5.18;3.67;;;;;;;17.50;60.81;100587.88;5033619;28;20057;-64
2022/07/19 02:41:16;;;;;;;4.32;3.33;;;;;;;17.47;60.64;100588.59;5030590;28;20113;-64
2022/07/19 02:43:44;;;;;;;4.75;3.42;;;;;;;17.42;60.64;100590.47;5026351;28;20049;-65
2022/07/19 02:46:12;;;;;;;5.25;3.50;;;;;;;17.41;60.91;100591.69;5031256;28;20057;-64
2022/07/19 02:48:40;;;;;;;4.93;3.30;;;;;;;17.40;60.81;100601.28;5032335;28;20057;-65
2022/07/19 02:51:10;;;;;;;7.23;4.17;;;;;;;17.38;60.80;100594.38;5030261;28;20513;-64
2022/07/19 02:53:38;;;;;;;5.00;3.25;;;;;;;17.37;60.91;100596.38;5024211;28;20060;-64
2022/07/19 02:56:05;;;;;;;4.55;3.58;;;;;;;17.35;61.00;100603.56;5016122;28;20061;-64
2022/07/19 02:58:33;;;;;;;5.25;3.40;;;;;;;17.31;61.08;100592.19;5019485;28;20054;-64
2022/07/19 03:01:00;;;;;;;5.78;3.50;;;;;;;17.30;61.08;100589.72;5025899;28;20049;-64
2022/07/19 03:03:46;;;;;;;6.60;3.50;;;;;;;17.28;61.20;100583.63;5012904;28;20065;-63
2022/07/19 03:06:17;;;;;;;6.43;4.10;;;;;;;17.24;61.13;100591.97;5028180;28;20050;-62
2022/07/19 03:08:45;;;;;;;5.03;3.80;;;;;;;17.24;61.33;100589.16;5029050;28;20076;-63
2022/07/19 03:11:12;;;;;;;5.57;3.72;;;;;;;17.20;61.24;100586.25;5032517;28;20053;-63
2022/07/19 03:13:40;;;;;;;4.68;3.25;;;;;;;17.17;61.29;100586.94;5018952;28;20061;-63
2022/07/19 03:16:08;;;;;;;6.32;3.67;;;;;;;17.16;61.49;100587.31;5017190;28;20062;-64
2022/07/19 03:18:35;;;;;;;5.22;3.70;;;;;;;17.13;61.49;100588.81;5018814;28;20049;-63
2022/07/19 03:21:03;;;;;;;4.38;3.35;;;;;;;17.09;61.55;100584.25;5031013;28;20049;-63
2022/07/19 03:23:34;;;;;;;5.22;3.38;;;;;;;17.13;61.60;100582.38;5017630;28;20761;-63
2022/07/19 03:26:02;;;;;;;6.00;4.13;;;;;;;17.08;61.56;100582.63;5012143;28;20046;-62
2022/07/19 03:28:29;;;;;;;6.65;3.33;;;;;;;17.06;61.56;100577.38;5018781;28;20503;-63
2022/07/19 03:30:57;;;;;;;9.32;3.58;;;;;;;17.03;61.59;100578.91;5000101;28;20060;-63
2022/07/19 03:33:24;;;;;;;6.65;4.30;;;;;;;16.99;61.75;100580.78;4997752;28;20518;-63
2022/07/19 03:35:51;;;;;;;8.43;3.83;;;;;;;16.64;63.22;100580.47;4998619;28;20050;-49
2022/07/19 03:38:19;;;;;;;8.70;4.25;;;;;;;16.54;63.81;100583.75;4995668;28;20069;-52
2022/07/19 03:40:48;;;;;;;5.40;3.80;;;;;;;16.55;64.29;100586.22;5010808;28;20054;-51
2022/07/19 03:43:15;;;;;;;;;;;;;;;16.37;65.10;100576.38;5005444;28;20134;-51
2022/07/19 03:45:43;;;;;;;4.38;3.30;;;;;;;16.54;64.36;100581.75;5008021;28;19989;-49
2022/07/19 03:48:10;;;;;;;5.88;3.38;;;;;;;16.54;64.35;100587.38;4999877;28;20049;-52
2022/07/19 03:50:38;;;;;;;5.53;3.10;;;;;;;16.52;63.80;100586.91;4999149;28;20065;-51
2022/07/19 03:53:06;;;;;;;5.70;3.70;;;;;;;16.60;63.66;100585.97;4997938;28;20057;-51
2022/07/19 03:55:33;;;;;;;7.18;3.45;;;;;;;16.38;64.75;100586.47;4999734;28;20050;-51
2022/07/19 03:58:02;;;;;;;6.07;3.80;;;;;;;16.28;65.25;100581.28;4996149;28;20145;-50
2022/07/19 04:00:29;;;;;;;6.33;3.30;;;;;;;16.42;64.77;100584.56;4996600;28;20054;-49
2022/07/19 04:02:57;;;;;;;3.60;3.30;;;;;;;16.36;64.86;100585.97;4996756;28;20087;-49
2022/07/19 04:05:24;;;;;;;9.93;3.90;;;;;;;16.50;64.65;100594.88;4995799;28;20050;-49
2022/07/19 04:07:51;;;;;;;5.10;3.38;;;;;;;16.57;64.10;100592.31;4999761;28;20061;-52
2022/07/19 04:10:19;;;;;;;6.32;3.63;;;;;;;16.52;64.67;100594.53;5003829;28;20066;-51
2022/07/19 04:12:46;;;;;;;4.47;3.50;;;;;;;16.59;64.33;100594.78;4992505;28;20061;-49
2022/07/19 04:15:15;;;;;;;7.60;3.85;;;;;;;16.68;63.87;100597.44;5002493;28;20407;-52
2022/07/19 04:17:42;;;;;;;5.10;3.27;;;;;;;16.70;64.00;100598.72;5011461;28;20376;-50
2022/07/19 04:20:11;;;;;;;6.95;3.67;;;;;;;16.75;64.13;100592.03;5012174;28;20398;-49
2022/07/19 04:22:38;;;;;;;7.63;3.72;;;;;;;16.90;64.08;100590.53;5009091;28;20507;-51
2022/07/19 04:25:07;;;;;;;4.85;3.85;;;;;;;16.89;64.32;100594.53;5000553;28;20060;-52
2022/07/19 04:27:34;;;;;;;8.13;4.75;;;;;;;17.00;63.43;100596.47;5011915;28;20056;-49
2022/07/19 04:30:02;;;;;;;7.32;4.38;;;;;;;17.16;63.22;100595.75;5015244;28;20521;-59
2022/07/19 04:32:30;;;;;;;8.27;3.80;;;;;;;17.31;62.63;100597.81;4998408;28;20054;-59
2022/07/19 04:34:58;;;;;;;7.20;3.70;;;;;;;17.43;62.24;100589.31;5007601;28;20065;-59
2022/07/19 04:37:25;;;;;;;6.15;3.30;;;;;;;17.54;61.92;100595.25;4994715;28;20054;-59
2022/07/19 04:39:52;;;;;;;5.60;3.50;;;;;;;17.65;61.60;100601.19;5000682;28;20502;-58
2022/07/19 04:42:19;;;;;;;4.57;3.28;;;;;;;17.72;60.99;100595.75;4993040;28;20054;-59
2022/07/19 04:44:47;;;;;;;6.80;3.53;;;;;;;17.79;61.00;100593.13;4992397;28;20054;-59
2022/07/19 04:47:14;;;;;;;6.10;3.65;;;;;;;17.89;60.59;100591.84;4991875;28;20431;-59
2022/07/19 04:49:43;;;;;;;8.15;3.42;;;;;;;17.97;60.58;100584.38;4992381;28;20408;-59
2022/07/19 04:52:10;;;;;;;4.03;2.88;;;;;;;18.02;60.48;100592.56;4992033;28;20054;-60
2022/07/19 04:54:37;;;;;;;4.78;3.40;;;;;;;18.10;60.25;100591.59;4992393;28;20058;-59
2022/07/19 04:57:05;;;;;;;4.22;3.30;;;;;;;18.13;60.17;100590.03;4992476;28;20050;-59
2022/07/19 04:59:32;;;;;;;4.22;3.33;;;;;;;18.19;59.81;100597.84;4994551;28;20058;-60
2022/07/19 05:01:59;;;;;;;5.78;3.63;;;;;;;18.22;59.68;100591.47;4996089;28;20054;-59
2022/07/19 05:04:27;;;;;;;8.25;4.00;;;;;;;18.31;59.34;100593.28;5007075;28;20065;-58
2022/07/19 05:06:57;;;;;;;6.70;3.97;;;;;;;18.39;58.74;100595.13;5034962;28;20049;-59
2022/07/19 05:09:25;;;;;;;7.28;4.10;;;;;;;18.44;58.61;100584.38;5034808;28;20056;-59
2022/07/19 05:11:53;;;;;;;7.18;4.32;;;;;;;18.51;58.25;100580.91;5034863;28;20065;-59
2022/07/19 05:14:20;;;;;;;7.10;4.45;;;;;;;18.59;58.39;100582.72;5034535;28;20065;-59
2022/07/19 05:16:49;;;;;;;7.95;4.30;;;;;;;18.64;58.32;100581.63;5031909;28;20049;-59
2022/07/19 05:19:17;;;;;;;8.18;4.47;;;;;;;18.72;57.96;100577.78;5014692;28;20406;-59
2022/07/19 05:21:46;;;;;;;5.13;4.07;;;;;;;18.77;57.75;100576.66;5015175;28;20056;-59
2022/07/19 05:24:15;;;;;;;7.40;3.85;;;;;;;18.88;57.17;100576.94;5015119;28;20054;-59
2022/07/19 05:26:42;;;;;;;6.28;4.80;;;;;;;18.93;57.20;100577.47;5014791;28;20057;-59
2022/07/19 05:29:11;;;;;;;8.00;4.55;;;;;;;18.99;57.17;100572.38;5014329;28;20491;-58
2022/07/19 05:31:38;;;;;;;8.93;4.40;;;;;;;19.04;56.98;100572.06;5014690;28;20061;-59
2022/07/19 05:34:06;;;;;;;5.53;3.78;;;;;;;19.14;56.35;100567.84;5014453;28;20534;-57
2022/07/19 05:36:33;;;;;;;6.85;4.38;;;;;;;19.24;56.12;100575.75;5014610;28;20057;-59
2022/07/19 05:39:00;;;;;;;6.90;4.00;;;;;;;19.32;56.83;100571.88;5014484;28;20062;-58
2022/07/19 05:41:29;;;;;;;7.25;4.55;;;;;;;19.39;56.03;100580.50;5014543;28;20065;-58
2022/07/19 05:43:56;;;;;;;6.45;4.10;;;;;;;19.47;56.09;100570.16;5014401;28;20053;-58
2022/07/19 05:46:24;;;;;;;7.50;5.03;;;;;;;19.59;55.67;100563.50;5014126;28;20050;-58
2022/07/19 05:48:51;;;;;;;6.68;4.53;;;;;;;19.71;55.30;100569.03;5014100;28;20057;-58
2022/07/19 05:51:18;;;;;;;7.53;4.10;;;;;;;19.82;54.93;100570.06;5014624;28;20054;-58
2022/07/19 05:53:46;;;;;;;6.90;3.80;;;;;;;19.93;54.52;100572.25;5014344;28;20506;-58
2022/07/19 05:56:13;;;;;;;6.40;4.40;;;;;;;20.05;54.49;100569.25;5014330;28;20054;-58
2022/07/19 05:58:42;;;;;;;7.53;4.00;;;;;;;20.18;54.25;100569.88;5014139;28;20050;-58
2022/07/19 06:01:23;;;;;;;5.18;3.60;;;;;;;20.30;54.18;100568.88;5014643;28;20061;-60
2022/07/19 06:03:52;;;;;;;5.45;4.30;;;;;;;20.40;54.56;100571.06;5014165;28;20057;-59
2022/07/19 06:06:19;;;;;;;;;;;;;;;20.49;54.69;100571.59;5014622;28;20081;-59
2022/07/19 06:08:47;;;;;;;8.07;4.32;;;;;;;20.60;55.04;100557.66;5014191;28;19928;-59
2022/07/19 06:11:15;;;;;;;10.10;4.25;;;;;;;20.75;54.88;100564.38;5012195;28;20053;-59
2022/07/19 06:13:45;;;;;;;6.13;4.40;;;;;;;20.88;54.59;100566.59;5014070;28;20487;-60
2022/07/19 06:16:13;;;;;;;6.80;4.35;;;;;;;20.99;54.39;100563.09;5013887;28;20046;-60
2022/07/19 06:18:40;;;;;;;8.23;4.18;;;;;;;21.13;53.71;100570.97;5014372;28;20415;-59
2022/07/19 06:21:10;;;;;;;8.00;4.47;;;;;;;21.27;53.48;100565.47;5013873;28;20057;-58
2022/07/19 06:23:39;;;;;;;7.90;4.93;;;;;;;21.36;53.06;100560.34;5013569;28;20065;-58
2022/07/19 06:26:07;;;;;;;5.15;4.03;;;;;;;21.51;53.38;100560.53;5013999;28;20419;-58
2022/07/19 06:28:35;;;;;;;7.88;4.68;;;;;;;21.63;53.04;100563.13;5013509;28;20050;-58
2022/07/19 06:31:04;;;;;;;7.57;5.00;;;;;;;21.74;52.81;100566.88;5013274;28;20061;-58
2022/07/19 06:33:31;;;;;;;5.20;3.70;;;;;;;21.86;52.48;100565.78;5013183;28;20062;-59
2022/07/19 06:35:59;;;;;;;5.90;4.38;;;;;;;22.01;51.98;100569.59;5014174;28;20407;-58
2022/07/19 06:38:26;;;;;;;6.68;4.07;;;;;;;22.14;51.70;100559.56;5013568;28;20057;-59
2022/07/19 06:40:53;;;;;;;8.77;4.80;;;;;;;22.18;51.69;100559.59;5013754;28;20053;-59
2022/07/19 06:43:20;;;;;;;6.43;4.20;;;;;;;22.29;51.35;100558.50;5013282;28;20058;-59
2022/07/19 06:45:48;;;;;;;8.70;4.80;;;;;;;22.48;50.97;100563.13;5013582;28;20058;-59
2022/07/19 06:48:17;;;;;;;7.03;4.72;;;;;;;22.59;50.70;100553.88;5012582;28;20057;-58
2022/07/19 06:50:44;;;;;;;6.78;4.10;;;;;;;22.75;50.47;100557.22;5013609;28;20497;-59
2022/07/19 06:53:11;;;;;;;8.32;4.45;;;;;;;22.87;50.19;100548.38;5013449;28;20060;-59
2022/07/19 06:55:39;;;;;;;9.30;4.20;;;;;;;23.02;50.31;100554.16;5013411;28;20080;-58
2022/07/19 06:58:06;;;;;;;6.72;4.20;;;;;;;23.15;49.95;100560.31;5013197;28;20518;-59
2022/07/19 07:00:33;;;;;;;7.70;4.93;;;;;;;23.30;49.64;100557.13;5012962;28;20054;-60
2022/07/19 07:03:01;;;;;;;6.57;4.60;;;;;;;23.46;49.32;100556.00;5012419;28;20050;-59
2022/07/19 07:05:29;;;;;;;7.63;4.82;;;;;;;23.61;49.59;100554.81;5012832;28;20053;-59
2022/07/19 07:07:57;;;;;;;6.95;4.43;;;;;;;23.77;49.17;100556.50;5013091;28;20380;-59
2022/07/19 07:10:24;;;;;;;8.93;4.57;;;;;;;23.93;48.07;100561.81;5012895;28;20049;-59
2022/07/19 07:12:51;;;;;;;7.28;4.60;;;;;;;24.07;47.96;100554.09;5012632;28;20061;-59
2022/07/19 07:15:19;;;;;;;7.88;4.07;;;;;;;24.23;48.05;100561.44;5012577;28;20050;-59
2022/07/19 07:17:46;;;;;;;7.78;4.55;;;;;;;24.39;47.67;100558.19;5012792;28;20050;-59
2022/07/19 07:20:13;;;;;;;6.38;4.18;;;;;;;24.49;47.24;100557.41;5012607;28;20471;-59
2022/07/19 07:22:42;;;;;;;8.63;4.05;;;;;;;24.73;46.23;100566.31;5012777;28;20391;-59
2022/07/19 07:25:10;;;;;;;6.80;3.90;;;;;;;24.90;45.75;100559.75;5013095;28;20050;-58
2022/07/19 07:27:37;;;;;;;6.57;3.83;;;;;;;25.09;45.33;100562.16;5012243;28;20455;-59
2022/07/19 07:30:06;;;;;;;5.75;3.72;;;;;;;25.26;44.84;100551.13;5012438;28;20061;-59
2022/07/19 07:32:33;;;;;;;4.35;3.15;;;;;;;25.42;44.38;100557.16;5012566;28;20054;-59
2022/07/19 07:35:02;;;;;;;6.55;3.40;;;;;;;25.61;44.65;100555.84;5012489;28;20116;-59
2022/07/19 07:37:29;;;;;;;5.70;3.30;;;;;;;25.81;43.25;100552.50;5012123;28;20053;-59
2022/07/19 07:39:58;;;;;;;5.32;2.90;;;;;;;25.99;41.18;100553.19;5012464;28;20057;-59
2022/07/19 07:42:25;;;;;;;6.47;3.15;;;;;;;26.17;41.20;100550.22;5011897;28;20065;-58
2022/07/19 07:44:53;;;;;;;5.68;2.42;;;;;;;26.35;40.88;100549.25;5012345;28;20058;-59
2022/07/19 07:47:20;;;;;;;4.90;3.03;;;;;;;26.55;39.79;100550.28;5012223;28;20407;-59
2022/07/19 07:49:49;;;;;;;4.32;3.03;;;;;;;27.00;38.69;100544.53;5012254;28;20053;-59
2022/07/19 07:52:17;;;;;;;4.82;3.08;;;;;;;27.86;37.76;100539.78;5012376;28;20058;-59
2022/07/19 07:54:44;;;;;;;4.43;2.83;;;;;;;28.90;35.62;100538.81;5012496;28;20057;-59
2022/07/19 07:57:13;;;;;;;5.05;2.67;;;;;;;29.79;34.47;100531.66;5012511;28;20060;-59
2022/07/19 07:59:40;;;;;;;4.47;2.58;;;;;;;30.75;33.63;100529.22;5012473;28;20050;-59
2022/07/19 08:02:08;;;;;;;4.15;3.10;;;;;;;31.76;32.24;100527.13;5012332;28;20054;-59
2022/07/19 08:04:35;;;;;;;3.47;2.70;;;;;;;32.66;31.72;100524.16;5012002;28;20054;-59
2022/07/19 08:07:03;;;;;;;5.22;3.03;;;;;;;33.59;31.04;100524.84;5012342;28;20387;-59
2022/07/19 08:09:31;;;;;;;4.20;2.75;;;;;;;34.51;30.12;100522.31;5011789;28;20494;-59
2022/07/19 08:11:58;;;;;;;4.25;2.30;;;;;;;35.34;28.17;100522.31;5012366;28;20487;-59
2022/07/19 08:14:27;;;;;;;6.28;2.38;;;;;;;36.38;27.17;100518.03;5012005;28;20510;-59
2022/07/19 08:16:54;;;;;;;4.63;2.45;;;;;;;37.36;25.03;100514.50;5011758;28;20050;-58
2022/07/19 08:19:22;;;;;;;7.40;2.70;;;;;;;38.34;23.99;100510.53;5011864;28;20395;-59
2022/07/19 08:21:49;;;;;;;4.97;2.50;;;;;;;39.43;22.73;100508.41;5012130;28;20061;-59
2022/07/19 08:24:16;;;;;;;5.60;2.95;;;;;;;40.54;21.54;100506.78;5011903;28;20065;-58
2022/07/19 08:26:43;;;;;;;3.33;1.93;;;;;;;41.44;20.41;100497.50;5011861;28;20427;-59
2022/07/19 08:29:11;;;;;;;6.60;2.53;;;;;;;42.39;19.04;100502.41;5011961;28;20356;-58
2022/07/19 08:31:39;;;;;;;4.15;2.50;;;;;;;43.21;18.62;100497.22;5011410;28;20484;-59
2022/07/19 08:34:07;;;;;;;4.15;2.40;;;;;;;44.03;17.64;100495.47;5013786;28;20049;-59
2022/07/19 08:36:34;;;;;;;4.03;2.70;;;;;;;44.72;17.19;100493.34;5015708;28;20414;-59
2022/07/19 08:39:01;;;;;;;4.88;2.90;;;;;;;45.36;16.54;100489.75;5015737;28;20502;-59
2022/07/19 08:41:29;;;;;;;5.18;2.50;;;;;;;46.20;15.42;100490.38;5015347;28;20060;-59
2022/07/19 08:43:58;;;;;;;5.53;2.35;;;;;;;46.83;15.46;100492.84;5015737;28;20605;-60
2022/07/19 08:46:26;;;;;;;6.68;2.58;;;;;;;47.42;14.65;100490.38;5015515;28;20050;-60
2022/07/19 08:48:55;;;;;;;6.25;2.65;;;;;;;47.94;14.44;100481.78;5015364;28;20121;-60
2022/07/19 08:51:24;;;;;;;4.90;2.70;;;;;;;48.41;13.95;100489.59;5015482;28;20056;-60
2022/07/19 08:53:51;;;;;;;4.25;2.38;;;;;;;48.57;13.86;100484.53;5015665;28;20058;-60
2022/07/19 08:59:04;;;;;;;7.13;3.00;;;;;;;49.59;12.65;100482.09;5015748;28;19925;-60
2022/07/19 09:01:31;;;;;;;;;;;;;;;49.66;12.95;100474.59;5015727;28;20061;-60
2022/07/19 09:04:11;;;;;;;2.83;2.25;;;;;;;50.21;11.14;100479.88;5015581;28;19929;-60
2022/07/19 09:06:41;;;;;;;3.95;2.20;;;;;;;50.95;11.38;100471.91;5015049;28;20053;-60
2022/07/19 09:09:10;;;;;;;3.88;2.65;;;;;;;51.54;9.95;100468.34;5014955;28;20050;-61
2022/07/19 09:11:40;;;;;;;5.00;2.50;;;;;;;51.97;8.69;100468.34;5015318;28;20057;-61
2022/07/19 09:14:09;;;;;;;4.70;2.40;;;;;;;51.98;9.50;100472.91;5014860;28;20050;-60
2022/07/19 09:16:55;;;;;;;7.88;2.75;;;;;;;52.28;8.30;100471.00;5014930;28;20061;-60
2022/07/19 09:19:24;;;;;;;3.95;2.28;;;;;;;52.72;8.67;100464.34;5015031;28;20061;-61
2022/07/19 09:21:57;;;;;;;5.45;2.13;;;;;;;52.98;8.69;100465.75;5014837;28;20415;-60
2022/07/19 09:24:25;;;;;;;5.90;2.40;;;;;;;53.32;8.48;100472.97;5014979;28;20049;-61
2022/07/19 09:27:01;;;;;;;5.85;2.53;;;;;;;53.19;7.95;100464.47;5014852;28;20050;-60
2022/07/19 09:29:30;;;;;;;6.30;2.47;;;;;;;52.85;8.49;100463.19;5014718;28;20065;-60
2022/07/19 09:32:08;;;;;;;6.75;2.72;;;;;;;53.04;8.09;100465.47;5014304;28;20521;-60
2022/07/19 09:34:40;;;;;;;4.15;2.28;;;;;;;53.47;7.53;100466.81;5014363;28;20076;-59
2022/07/19 09:37:12;;;;;;;6.25;2.25;;;;;;;53.24;7.39;100469.34;5015009;28;20050;-59
2022/07/19 09:39:41;;;;;;;3.33;2.28;;;;;;;53.19;7.49;100447.41;5014432;28;20403;-59
2022/07/19 09:42:09;;;;;;;4.25;1.95;;;;;;;53.26;6.77;100460.56;5014800;28;20057;-59
2022/07/19 09:44:36;;;;;;;3.65;1.88;;;;;;;53.11;5.65;100447.50;5014227;28;20054;-59
2022/07/19 09:47:04;;;;;;;3.13;1.80;;;;;;;52.95;5.65;100449.16;5014374;28;20054;-58
2022/07/19 09:49:31;;;;;;;3.00;1.70;;;;;;;52.17;6.22;100445.59;5012980;28;20156;-58
2022/07/19 09:52:01;;;;;;;3.78;1.80;;;;;;;51.67;6.51;100445.66;5014386;28;20065;-59
2022/07/19 09:54:29;;;;;;;3.60;1.70;;;;;;;51.08;7.00;100436.00;5014425;28;20403;-59
2022/07/19 09:57:01;;;;;;;3.92;1.77;;;;;;;51.11;6.64;100437.78;5014592;28;20487;-58
2022/07/19 09:59:31;;;;;;;4.03;1.80;;;;;;;50.83;6.85;100435.97;5013859;28;20045;-58
2022/07/19 10:01:58;;;;;;;3.42;1.85;;;;;;;51.34;6.48;100439.78;5014110;28;20415;-58
2022/07/19 10:04:27;;;;;;;3.70;2.00;;;;;;;51.48;6.66;100437.34;5014001;28;20064;-59
2022/07/19 10:06:57;;;;;;;6.95;2.10;;;;;;;51.12;7.17;100445.31;5014027;28;20491;-59
2022/07/19 10:09:26;;;;;;;3.63;1.95;;;;;;;51.28;6.78;100434.09;5013917;28;20050;-59
2022/07/19 10:11:54;;;;;;;2.67;2.10;;;;;;;51.74;6.68;100439.63;5014214;28;20061;-59
2022/07/19 10:14:21;;;;;;;4.15;2.28;;;;;;;51.73;6.46;100434.31;5014199;28;20064;-59
2022/07/19 10:17:08;;;;;;;5.03;1.92;;;;;;;52.29;6.16;100434.72;5013944;28;20054;-59
2022/07/19 10:19:38;;;;;;;;;;;;;;;52.79;6.04;100429.91;5014039;28;20395;-59
2022/07/19 10:22:07;;;;;;;3.65;2.03;;;;;;;53.45;5.87;100416.00;5013603;28;19927;-58
2022/07/19 10:24:49;;;;;;;3.33;2.08;;;;;;;53.12;5.62;100419.31;5013332;28;20053;-59
2022/07/19 10:27:19;;;;;;;4.05;2.60;;;;;;;53.51;6.02;100410.56;5013541;28;20053;-58
2022/07/19 10:29:46;;;;;;;4.53;2.70;;;;;;;53.38;5.62;100410.94;5013100;28;20057;-58
2022/07/19 10:32:15;;;;;;;2.97;2.35;;;;;;;53.45;5.67;100416.00;5013613;28;20050;-58
2022/07/19 10:34:45;;;;;;;3.58;1.75;;;;;;;54.01;5.75;100403.25;5013648;28;20065;-59
2022/07/19 10:37:16;;;;;;;3.15;1.80;;;;;;;54.11;5.23;100404.03;5013569;28;20502;-59
2022/07/19 10:39:58;;;;;;;3.95;2.05;;;;;;;53.67;5.35;100393.16;5013238;28;20054;-58
2022/07/19 10:42:25;;;;;;;4.70;2.15;;;;;;;53.90;5.20;100391.97;5013317;28;20095;-59
2022/07/19 10:45:15;;;;;;;3.28;2.20;;;;;;;53.55;5.31;100387.06;5013269;28;20061;-58
2022/07/19 10:48:02;;;;;;;2.75;1.73;;;;;;;52.84;4.99;100399.91;5013123;28;20061;-58
2022/07/19 10:50:58;;;;;;;4.60;2.10;;;;;;;52.66;5.27;100401.34;5012920;28;20077;-59
2022/07/19 10:53:57;;;;;;;;;;;;;;;52.95;5.55;100389.63;5013866;28;20065;-58
2022/07/19 10:56:29;;;;;;;5.10;2.28;;;;;;;53.71;5.04;100374.84;5012718;28;19929;-58
2022/07/19 10:58:59;;;;;;;6.53;2.28;;;;;;;53.38;5.42;100381.16;5013320;28;20415;-58
2022/07/19 11:01:28;;;;;;;2.40;2.20;;;;;;;53.89;5.30;100388.22;5013300;28;20485;-58
2022/07/19 11:04:16;;;;;;;4.20;2.38;;;;;;;53.31;5.41;100385.09;5011652;28;20445;-58
2022/07/19 11:06:43;;;;;;;2.70;2.30;;;;;;;52.88;5.14;100382.41;4992943;28;20050;-58
2022/07/19 11:09:11;;;;;;;2.90;2.10;;;;;;;53.07;5.60;100368.97;4993416;28;20050;-58
2022/07/19 11:11:39;;;;;;;3.63;2.40;;;;;;;53.46;5.52;100366.97;4993011;28;20494;-59
2022/07/19 11:14:07;;;;;;;3.15;2.20;;;;;;;53.70;4.96;100373.25;4993510;28;20054;-59
2022/07/19 11:16:34;;;;;;;4.47;2.30;;;;;;;52.66;5.33;100374.59;4992821;28;20054;-58
2022/07/19 11:19:08;;;;;;;3.97;2.33;;;;;;;52.38;5.03;100364.03;4993228;28;20054;-57
2022/07/19 11:21:37;;;;;;;4.53;2.70;;;;;;;51.98;5.54;100362.97;4992667;28;20058;-59
2022/07/19 11:24:05;;;;;;;5.05;2.35;;;;;;;51.88;5.50;100362.88;4993080;28;20054;-59
2022/07/19 11:26:38;;;;;;;3.22;2.17;;;;;;;52.11;5.59;100361.81;4992647;28;20496;-59
2022/07/19 11:29:09;;;;;;;3.88;2.10;;;;;;;53.15;4.69;100354.78;4992810;28;20054;-58
2022/07/19 11:31:46;;;;;;;5.07;2.50;;;;;;;53.79;4.73;100342.72;4992487;28;20427;-59
2022/07/19 11:34:15;;;;;;;4.65;2.05;;;;;;;53.76;4.97;100343.94;4992749;28;20050;-59
2022/07/19 11:36:42;;;;;;;5.57;2.30;;;;;;;53.31;4.92;100344.19;4992829;28;20054;-59
2022/07/19 11:39:09;;;;;;;4.88;2.10;;;;;;;52.54;5.23;100342.41;4992566;28;20419;-59